Weather at Rakovski Airstrip

Public forecast

Using degrees Celsius for public forecast. Weather courtesy of forecast.io.

Closest aviation weather report (METAR) to Rakovski Airstrip

Closest report is Graf Ignatievo Air Base, 10.4 nm (19.2 km) W.

2023/03/28 23:00 (retrieved 1 hour ago)

LBPG 282300Z 27020KT 9999 SCT060 BKN100 03/M06 Q1019

Closest aviation forecast (TAF) to Rakovski Airstrip

Forecast is more than 12 hours old.

Closest forecast is Kuk√ęs International Airport, 202.2 nm (374.5 km) W.

2023/03/28 12:00 Ammendment (retrieved 12 hours ago)

TAF AMD LAKU 281615Z 2812/2912 CNL